Jump to content

Lunar eclipse tonight on the solstice


crashed_05

Recommended Posts

Tonight would be awesome for a flight. Never seen one but supposedly the snow on the ground has a red-ish glow. This is a very rare case. In the last 2000 years, there has only been one lunar eclipse on the solstice. Sorry for the late notice, but I just found out myself.

Happening at 10:33 PM pacific time.

Edited by crashed_05
Link to comment
Share on other sites

Well, that was lame. At least I now know that I haven't been missing out on much. Maybe if I had some NVGs.

 

I'm kinda bummed I didn't get to see it. Here is the METAR for about the time it was supposed to be full here.

 

KGFK 210812Z 08013KT 1/4SM +SN FZFG VV004 M08/M09 A2981 RMK AO2 P0002

Link to comment
Share on other sites

Join the conversation

You can post now and register later. If you have an account, sign in now to post with your account.
Note: Your post will require moderator approval before it will be visible.

Guest
Reply to this topic...

×   Pasted as rich text.   Paste as plain text instead

  Only 75 emoji are allowed.

×   Your link has been automatically embedded.   Display as a link instead

×   Your previous content has been restored.   Clear editor

×   You cannot paste images directly. Upload or insert images from URL.

Loading...
×
×
  • Create New...